Extreme weather reports worldwide

Highest temperatures

Station
 
Location
 
Name
 
Wind
Knots
Gust
Knots
Vis
SM
Temp/Dew
C
Baro
inHg
METAR
 
NDJ FTTJ N'Djamena, TD N'Djamena International Airport 11 4.97 44/7 29.65 FTTJ 211200Z 08011KT 050V140 8000 NSC 44/07 Q1004 NOSIG
DRZF Diffa, NE Diffa Airport 8 43/2 29.70 DRZF 211200Z 12008KT CAVOK 43/02 Q1006
MZI GAMB ML Mopti Airport 6 42/-1 29.70 GAMB 211200Z 16006KT CAVOK 42/M01 Q1006
KQN3 3 13 41/14 29.72 KQN3 211155Z 26003G13KT 9999 BKN200 41/15 A2972 RMK AO2A SLP051 WND DATA ESTMD T04130145 10415 20329
KAN DNKN Kano, NG Mallam Aminu International Airport 4 41/15 29.79 DNKN 211200Z 25004KT 180V320 CAVOK 41/15 Q1009 NOSIG

Station
 
Location
 
Name
 
Wind
Knots
Gust
Knots
Vis
SM
Temp/Dew
C
Baro
inHg
METAR
 
NIM DRRN Niamey, NE Diori Hamani International Airport 15 4.35 41/10 29.70 DRRN 211200Z 26015KT 7000 NSC 41/10 Q1006 TEMPO 4000 BLDU
AJY DRZA Agadez, NE Mano Dayak International Airport 16 4.97 41/-4 29.73 DRZA 211200Z 16016KT 8000 NSC 41/M04 Q1007
ZND DRZR Zinder, NE Zinder Airport 8 41/3 29.76 DRZR 211200Z 21008KT 060V240 CAVOK 41/03 Q1008
GOU FKKR Garoua, CM Garoua International Airport 9 41/21 29.70 FKKR 211200Z 29009KT CAVOK 41/21 Q1006 NOSIG
NIX GANR Nioro du Sahel, ML Nioro du Sahel Airport 4 41/6 29.73 GANR 211200Z 26004KT CAVOK 41/06 Q1007
IXW VEJS Jamshedpur, IN Sonari Airport 4 3.73 41/14 29.59 VEJS 211200Z 32004KT 6000 SCT020 41/14 Q1002
KQAZ 11 17 40/-3 29.75 KQAZ 211155Z AUTO 15011G17KT 120V180 9999 CLR 41/M03 A2975 RMK AO2 SLP064 WND DATA ESTMD T04091033 10413 20283 58021
MFQ DRRM Maradi, NE Maradi Airport 8 4.97 40/20 29.73 DRRM 211200Z 22008KT 8000 NSC 40/20 Q1007
SRH FTTA Sarh, TD Sarh Airport 4 40/19 29.70 FTTA 211200Z 20004KT 9999 FEW033 40/19 Q1006
BKO GABS Bamako, ML Modibo Keita International Airport 11 40/8 29.76 GABS 211200Z 28011KT 250V310 CAVOK 40/08 Q1008 NOSIG
CDP VOCP Kadapa, IN Kadapa Airport 14 3.11 40/14 29.62 VOCP 211200Z 11014KT 5000 HZ FEW020 SCT025 40/14 Q1003 NOSIG
OUA DFFD Ouagadougou, BF Ouagadougou Airport 10 39/21 29.76 DFFD 211200Z 20010KT 170V240 CAVOK 39/21 Q1008 NOSIG
SKO DNSO Sokoto, NG Sadiq Abubakar III International Airport 18 39/25 29.76 DNSO 211200Z 29018KT CAVOK 39/25 Q1008
MQQ FTTD TD Moundou Airport 0 39/19 29.73 FTTD 211200Z 00000KT 9999 FEW040 39/19 Q1007
KGG GOTK K├ędougou, SN K├ędougou Airport 8 39/16 29.73 GOTK 211200Z 22008KT CAVOK 39/16 Q1007
WAE OEWD SA Wadi Al Dawasir Airport 12 39/5 29.73 OEWD 211200Z 28012KT 9999 SCT030 39/05 Q1007
VEBU 4 3.73 39/14 29.59 VEBU 211200Z 26004KT 6000 FEW020 SCT025 39/14 Q1002 NOSIG
JRG VEJH IN Jharsuguda Airport 5 3.11 39/18 29.62 VEJH 211200Z 24005KT 5000 HZ SCT020 BKN100 39/18 Q1003
TIR VOTP Tirupati, IN Tirupati Airport 5 3.73 39/19 29.68 VOTP 211230Z 15005KT 6000 FEW020 39/19 Q1005 NOSIG
VOND 5 3.73 38/20 29.70 VOND 211130Z 23005KT 6000 FEW025 SCT080 38/20 Q1006 NOSIG
GAKD 6 3.11 38/19 29.73 GAKD 211200Z 34006KT 5000 DU NSC 38/19 Q1007
HOF OEAH SA Al Ahsa Airport 18 38/0 29.70 OEAH 211200Z 18018KT CAVOK 38/00 Q1006 NOSIG
OEMN 4 38/9 29.82 OEMN 211200Z 20004KT CAVOK 38/09 Q1010
NAG VANP Nagpur, IN Dr. Babasaheb Ambedkar International Airport 2 3.11 38/18 29.70 VANP 211230Z 11002KT 5000 HZ SCT100 38/18 Q1006 NOSIG
PAT VEPT Patna, IN Lok Nayak Jayaprakash Airport 8 3.11 38/11 29.56 VEPT 211230Z 28008KT 5000 HZ FEW020 SCT100 38/11 Q1001 NOSIG
VERP 2 3.11 38/18 29.68 VERP 211230Z 17002KT 5000 HZ FEW020 SCT100 38/18 Q1005 BECMG 4000 HZ
AKH OEPS SA Prince Sultan Air Base 11 21 37/1 29.78 OEPS 211155Z AUTO 21011G21KT 9999 CLR 38/02 A2978 RMK AO2 SLP063 WND DATA ESTMD T03790015 10384 20303 57027
MAX GOSM Matam, SN Ouro Sogui Airport 4 37/16 29.70 GOSM 211200Z 30004KT CAVOK 37/16 Q1006
OEKJ 19 4.35 37/-28 29.76 OEKJ 211200Z 21019KT 7000 FEW030 SCT040 37/M28 Q1008
AQI OEPA Qaisumah, SA Al Qaisumah/Hafr Al Batin Airport 28 0.56 37/6 29.62 OEPA 211200Z 12028KT 0900 DS NSC 37/06 Q1003 NOSIG
SKZ OPSK Mirpur Khas, PK Sukkur Airport 10 2.49 37/15 29.68 OPSK 211200Z 31010KT 4000 HZ SCT040 37/15 Q1005 NOSIG
VEKO 6 3.11 37/5 29.65 VEKO 211200Z 24006KT 5000 HZ BKN100 37/05 Q1004
VOJV 6 3.73 37/18 29.73 VOJV 211200Z 30006KT 6000 SCT015 37/18 Q1007
SXV VOSM Salem, IN Salem Airport 6 3.73 37/13 29.68 VOSM 211200Z 10006KT 6000 FEW020 SCT025 37/13 Q1005 NOSIG
UTH VTUD Udon Thani, TH Udon Thani Airport 2 37/19 29.59 VTUD 211200Z VRB02KT CAVOK 37/19 Q1002 NOSIG
JLR VAJB IN Jabalpur Airport 4 3.73 37/10 29.73 VAJB 211230Z 02004KT 6000 FEW025 SCT100 37/10 Q1007 NOSIG
CCU VECC Kolkata, IN Netaji Subhash Chandra Bose International Airport 6 2.49 37/21 29.56 VECC 211230Z 16006KT 4000 HZ FEW020 SCT100 37/21 Q1001 NOSIG
GAY VEGY IN Gaya Airport 7 3.73 37/4 29.59 VEGY 211230Z 27007KT 6000 FEW100 37/04 Q1002
CJB VOCB Coimbatore, IN Coimbatore International Airport 4 3.73 37/14 29.73 VOCB 211230Z 08004KT 6000 FEW015 FEW025CB 37/14 Q1007 NOSIG
TRZ VOTR Tiruchirappally, IN Tiruchirapally Civil Airport Airport 12 3.73 37/24 29.68 VOTR 211230Z 11012KT 6000 FEW016 SCT020 37/24 Q1005 NOSIG
BZV FCBB Brazzaville, CG Maya-Maya Airport 7 36/24 29.76 FCBB 211200Z 04007KT 350V080 9999 TS FEW020 FEW030CB 36/24 Q1008 NOSIG
GOGK 4 36/17 29.73 GOGK 211200Z 04004KT CAVOK 36/17 Q1007
GAS HKGA Garissa, KE Garissa Airport 15 36/19 29.73 HKGA 211200Z 17015KT 9999 BKN030 36/19 Q1007
DMM OEDF Ad Dammam, SA King Fahd International Airport 16 36/3 29.70 OEDF 211200Z 12016KT CAVOK 36/03 Q1006 NOSIG
ELQ OEGS SA Gassim Airport 15 36/-6 29.70 OEGS 211200Z 30015KT CAVOK 36/M06 Q1006